Terminal Aerodrome Forecast
Issued by NWS Memphis, TN

Home | Current Version | Previous Version | Text Only | Print | Product List | Glossary On
Versions: 1 2 3 4 5 6 7 8 9 10 11 12 13 14 15 16 17 18
000
FTUS44 KMEG 280530
TAFMKL
TAF
KMKL 280530Z 2806/2906 00000KT P6SM SCT150
     FM281300 17006KT P6SM SKC
     FM281700 18010KT P6SM SKC
     FM290000 19008KT P6SM SCT250=

USA.gov is the U.S. government's official web portal to all federal, state and local government web resources and services.